sensor_id;sensor_type;location;lat;lon;timestamp;P1;durP1;ratioP1;P2;durP2;ratioP2
28170;SDS011;15458;53.346;-1.688;2023-04-01T00:01:42;5.35;;;3.22;;
28170;SDS011;15458;53.346;-1.688;2023-04-01T00:04:08;9.88;;;3.50;;
28170;SDS011;15458;53.346;-1.688;2023-04-01T00:06:34;7.43;;;3.67;;
28170;SDS011;15458;53.346;-1.688;2023-04-01T00:09:00;6.07;;;3.17;;
28170;SDS011;15458;53.346;-1.688;2023-04-01T00:11:26;6.50;;;3.15;;
28170;SDS011;15458;53.346;-1.688;2023-04-01T00:13:52;4.82;;;3.03;;
28170;SDS011;15458;53.346;-1.688;2023-04-01T00:16:19;7.03;;;3.05;;
28170;SDS011;15458;53.346;-1.688;2023-04-01T00:18:45;5.13;;;2.70;;
28170;SDS011;15458;53.346;-1.688;2023-04-01T00:21:12;5.43;;;2.65;;
28170;SDS011;15458;53.346;-1.688;2023-04-01T00:23:38;6.30;;;2.60;;
28170;SDS011;15458;53.346;-1.688;2023-04-01T00:26:04;5.95;;;2.85;;
28170;SDS011;15458;53.346;-1.688;2023-04-01T00:28:33;7.20;;;2.85;;
28170;SDS011;15458;53.346;-1.688;2023-04-01T00:31:04;6.17;;;2.57;;
28170;SDS011;15458;53.346;-1.688;2023-04-01T00:36:07;6.53;;;2.65;;
28170;SDS011;15458;53.346;-1.688;2023-04-01T00:38:40;4.28;;;2.67;;
28170;SDS011;15458;53.346;-1.688;2023-04-01T00:41:07;5.93;;;2.38;;
28170;SDS011;15458;53.346;-1.688;2023-04-01T00:43:35;9.35;;;4.30;;
28170;SDS011;15458;53.346;-1.688;2023-04-01T00:46:01;5.63;;;3.33;;
28170;SDS011;15458;53.346;-1.688;2023-04-01T00:48:31;5.07;;;3.10;;
28170;SDS011;15458;53.346;-1.688;2023-04-01T00:51:10;7.38;;;3.10;;
28170;SDS011;15458;53.346;-1.688;2023-04-01T00:53:45;4.43;;;2.53;;
28170;SDS011;15458;53.346;-1.688;2023-04-01T00:56:17;5.03;;;2.30;;
28170;SDS011;15458;53.346;-1.688;2023-04-01T00:58:48;5.15;;;2.97;;
28170;SDS011;15458;53.346;-1.688;2023-04-01T01:01:20;4.65;;;3.38;;
28170;SDS011;15458;53.346;-1.688;2023-04-01T01:03:47;6.35;;;3.17;;
28170;SDS011;15458;53.346;-1.688;2023-04-01T01:06:26;4.53;;;2.75;;
28170;SDS011;15458;53.346;-1.688;2023-04-01T01:11:29;5.03;;;2.72;;
28170;SDS011;15458;53.346;-1.688;2023-04-01T01:14:04;5.32;;;2.85;;
28170;SDS011;15458;53.346;-1.688;2023-04-01T01:16:53;8.52;;;4.00;;
28170;SDS011;15458;53.346;-1.688;2023-04-01T01:25:25;6.07;;;3.60;;
28170;SDS011;15458;53.346;-1.688;2023-04-01T01:28:10;6.75;;;3.90;;
28170;SDS011;15458;53.346;-1.688;2023-04-01T01:36:13;4.28;;;3.03;;
28170;SDS011;15458;53.346;-1.688;2023-04-01T01:38:41;6.75;;;3.28;;
28170;SDS011;15458;53.346;-1.688;2023-04-01T01:41:08;4.32;;;2.85;;
28170;SDS011;15458;53.346;-1.688;2023-04-01T01:43:37;5.47;;;3.25;;
28170;SDS011;15458;53.346;-1.688;2023-04-01T01:46:08;4.32;;;2.97;;
28170;SDS011;15458;53.346;-1.688;2023-04-01T01:48:38;5.28;;;3.33;;
28170;SDS011;15458;53.346;-1.688;2023-04-01T01:51:06;6.35;;;3.58;;
28170;SDS011;15458;53.346;-1.688;2023-04-01T01:53:32;5.22;;;3.20;;
28170;SDS011;15458;53.346;-1.688;2023-04-01T01:55:58;5.10;;;3.03;;
28170;SDS011;15458;53.346;-1.688;2023-04-01T01:58:35;8.80;;;3.50;;
28170;SDS011;15458;53.346;-1.688;2023-04-01T02:01:20;9.00;;;4.63;;
28170;SDS011;15458;53.346;-1.688;2023-04-01T02:03:52;9.38;;;4.18;;
28170;SDS011;15458;53.346;-1.688;2023-04-01T02:06:24;9.38;;;3.60;;
28170;SDS011;15458;53.346;-1.688;2023-04-01T02:09:03;7.75;;;3.80;;
28170;SDS011;15458;53.346;-1.688;2023-04-01T02:11:43;11.27;;;4.05;;
28170;SDS011;15458;53.346;-1.688;2023-04-01T02:14:14;8.20;;;4.30;;
28170;SDS011;15458;53.346;-1.688;2023-04-01T02:16:48;5.65;;;3.45;;
28170;SDS011;15458;53.346;-1.688;2023-04-01T02:19:38;4.55;;;3.38;;
28170;SDS011;15458;53.346;-1.688;2023-04-01T02:22:11;6.38;;;3.25;;
28170;SDS011;15458;53.346;-1.688;2023-04-01T02:24:41;7.18;;;3.28;;
28170;SDS011;15458;53.346;-1.688;2023-04-01T02:27:09;6.93;;;3.03;;
28170;SDS011;15458;53.346;-1.688;2023-04-01T02:29:36;4.57;;;3.25;;
28170;SDS011;15458;53.346;-1.688;2023-04-01T02:32:02;6.13;;;3.35;;
28170;SDS011;15458;53.346;-1.688;2023-04-01T02:34:28;6.68;;;3.70;;
28170;SDS011;15458;53.346;-1.688;2023-04-01T02:36:55;5.00;;;3.30;;
28170;SDS011;15458;53.346;-1.688;2023-04-01T02:39:22;7.72;;;3.65;;
28170;SDS011;15458;53.346;-1.688;2023-04-01T02:41:48;8.05;;;3.38;;
28170;SDS011;15458;53.346;-1.688;2023-04-01T02:44:14;7.60;;;3.50;;
28170;SDS011;15458;53.346;-1.688;2023-04-01T02:46:42;5.88;;;3.50;;
28170;SDS011;15458;53.346;-1.688;2023-04-01T02:49:08;6.50;;;3.47;;
28170;SDS011;15458;53.346;-1.688;2023-04-01T02:51:34;7.97;;;3.63;;
28170;SDS011;15458;53.346;-1.688;2023-04-01T02:53:59;11.10;;;3.72;;
28170;SDS011;15458;53.346;-1.688;2023-04-01T02:56:25;8.45;;;3.78;;
28170;SDS011;15458;53.346;-1.688;2023-04-01T02:58:52;7.55;;;3.70;;
28170;SDS011;15458;53.346;-1.688;2023-04-01T03:01:18;10.07;;;4.03;;
28170;SDS011;15458;53.346;-1.688;2023-04-01T03:03:45;8.65;;;3.80;;
28170;SDS011;15458;53.346;-1.688;2023-04-01T03:06:11;8.35;;;3.85;;
28170;SDS011;15458;53.346;-1.688;2023-04-01T03:08:38;9.15;;;4.20;;
28170;SDS011;15458;53.346;-1.688;2023-04-01T03:11:04;5.45;;;3.40;;
28170;SDS011;15458;53.346;-1.688;2023-04-01T03:13:31;6.53;;;3.60;;
28170;SDS011;15458;53.346;-1.688;2023-04-01T03:15:56;6.35;;;2.65;;
28170;SDS011;15458;53.346;-1.688;2023-04-01T03:18:22;8.43;;;3.03;;
28170;SDS011;15458;53.346;-1.688;2023-04-01T03:20:48;8.00;;;3.22;;
28170;SDS011;15458;53.346;-1.688;2023-04-01T03:23:14;4.20;;;2.78;;
28170;SDS011;15458;53.346;-1.688;2023-04-01T03:25:42;6.93;;;2.83;;
28170;SDS011;15458;53.346;-1.688;2023-04-01T03:28:08;8.95;;;2.90;;
28170;SDS011;15458;53.346;-1.688;2023-04-01T03:30:34;9.48;;;3.10;;
28170;SDS011;15458;53.346;-1.688;2023-04-01T03:33:00;8.00;;;3.42;;
28170;SDS011;15458;53.346;-1.688;2023-04-01T03:35:27;9.27;;;3.42;;
28170;SDS011;15458;53.346;-1.688;2023-04-01T03:37:53;6.78;;;3.20;;
28170;SDS011;15458;53.346;-1.688;2023-04-01T03:40:19;10.25;;;4.03;;
28170;SDS011;15458;53.346;-1.688;2023-04-01T03:42:45;9.40;;;3.58;;
28170;SDS011;15458;53.346;-1.688;2023-04-01T03:45:11;9.07;;;4.88;;
28170;SDS011;15458;53.346;-1.688;2023-04-01T03:47:37;9.45;;;4.03;;
28170;SDS011;15458;53.346;-1.688;2023-04-01T03:50:03;13.10;;;3.72;;
28170;SDS011;15458;53.346;-1.688;2023-04-01T03:52:30;8.70;;;3.30;;
28170;SDS011;15458;53.346;-1.688;2023-04-01T03:54:56;6.25;;;2.78;;
28170;SDS011;15458;53.346;-1.688;2023-04-01T03:57:22;6.18;;;2.53;;
28170;SDS011;15458;53.346;-1.688;2023-04-01T03:59:48;7.53;;;3.05;;
28170;SDS011;15458;53.346;-1.688;2023-04-01T04:02:14;8.18;;;2.97;;
28170;SDS011;15458;53.346;-1.688;2023-04-01T04:04:39;9.95;;;3.17;;
28170;SDS011;15458;53.346;-1.688;2023-04-01T04:07:06;7.65;;;3.25;;
28170;SDS011;15458;53.346;-1.688;2023-04-01T04:09:32;7.72;;;4.05;;
28170;SDS011;15458;53.346;-1.688;2023-04-01T04:11:59;6.97;;;2.63;;
28170;SDS011;15458;53.346;-1.688;2023-04-01T04:14:25;5.18;;;2.28;;
28170;SDS011;15458;53.346;-1.688;2023-04-01T04:16:51;3.13;;;1.75;;
28170;SDS011;15458;53.346;-1.688;2023-04-01T04:19:17;5.10;;;2.28;;
28170;SDS011;15458;53.346;-1.688;2023-04-01T04:21:43;3.30;;;1.65;;
28170;SDS011;15458;53.346;-1.688;2023-04-01T04:24:09;3.60;;;1.60;;
28170;SDS011;15458;53.346;-1.688;2023-04-01T04:26:35;3.60;;;1.33;;
28170;SDS011;15458;53.346;-1.688;2023-04-01T04:29:01;1.67;;;1.30;;
28170;SDS011;15458;53.346;-1.688;2023-04-01T04:31:27;4.22;;;1.40;;
28170;SDS011;15458;53.346;-1.688;2023-04-01T04:33:53;1.52;;;1.25;;
28170;SDS011;15458;53.346;-1.688;2023-04-01T04:36:20;1.65;;;1.20;;
28170;SDS011;15458;53.346;-1.688;2023-04-01T04:38:46;6.00;;;1.42;;
28170;SDS011;15458;53.346;-1.688;2023-04-01T04:41:13;3.78;;;1.58;;
28170;SDS011;15458;53.346;-1.688;2023-04-01T04:43:48;3.33;;;1.60;;
28170;SDS011;15458;53.346;-1.688;2023-04-01T04:46:18;3.88;;;2.00;;
28170;SDS011;15458;53.346;-1.688;2023-04-01T04:48:44;2.65;;;1.65;;
28170;SDS011;15458;53.346;-1.688;2023-04-01T04:51:12;3.90;;;1.70;;
28170;SDS011;15458;53.346;-1.688;2023-04-01T04:53:42;3.80;;;2.00;;
28170;SDS011;15458;53.346;-1.688;2023-04-01T04:56:08;4.53;;;2.20;;
28170;SDS011;15458;53.346;-1.688;2023-04-01T04:58:34;4.00;;;2.65;;
28170;SDS011;15458;53.346;-1.688;2023-04-01T05:01:11;6.38;;;2.20;;
28170;SDS011;15458;53.346;-1.688;2023-04-01T05:03:38;7.95;;;2.45;;
28170;SDS011;15458;53.346;-1.688;2023-04-01T05:06:04;6.60;;;2.28;;
28170;SDS011;15458;53.346;-1.688;2023-04-01T05:08:31;6.60;;;2.47;;
28170;SDS011;15458;53.346;-1.688;2023-04-01T05:10:57;4.47;;;2.55;;
28170;SDS011;15458;53.346;-1.688;2023-04-01T05:13:24;6.00;;;2.78;;
28170;SDS011;15458;53.346;-1.688;2023-04-01T05:15:50;5.65;;;2.53;;
28170;SDS011;15458;53.346;-1.688;2023-04-01T05:18:15;4.55;;;2.50;;
28170;SDS011;15458;53.346;-1.688;2023-04-01T05:20:45;6.50;;;2.03;;
28170;SDS011;15458;53.346;-1.688;2023-04-01T05:23:15;7.63;;;1.80;;
28170;SDS011;15458;53.346;-1.688;2023-04-01T05:25:42;8.93;;;2.53;;
28170;SDS011;15458;53.346;-1.688;2023-04-01T05:28:09;4.70;;;2.90;;
28170;SDS011;15458;53.346;-1.688;2023-04-01T05:30:35;7.10;;;3.13;;
28170;SDS011;15458;53.346;-1.688;2023-04-01T05:33:01;9.23;;;3.20;;
28170;SDS011;15458;53.346;-1.688;2023-04-01T05:35:28;8.20;;;3.35;;
28170;SDS011;15458;53.346;-1.688;2023-04-01T05:37:54;7.95;;;3.60;;
28170;SDS011;15458;53.346;-1.688;2023-04-01T05:40:20;6.43;;;2.97;;
28170;SDS011;15458;53.346;-1.688;2023-04-01T05:42:45;4.68;;;2.22;;
28170;SDS011;15458;53.346;-1.688;2023-04-01T05:45:11;9.57;;;2.88;;
28170;SDS011;15458;53.346;-1.688;2023-04-01T05:47:40;9.07;;;2.50;;
28170;SDS011;15458;53.346;-1.688;2023-04-01T05:50:08;5.78;;;2.17;;
28170;SDS011;15458;53.346;-1.688;2023-04-01T05:52:36;5.03;;;1.77;;
28170;SDS011;15458;53.346;-1.688;2023-04-01T05:55:02;4.53;;;2.10;;
28170;SDS011;15458;53.346;-1.688;2023-04-01T05:57:28;6.30;;;1.88;;
28170;SDS011;15458;53.346;-1.688;2023-04-01T05:59:54;3.53;;;2.00;;
28170;SDS011;15458;53.346;-1.688;2023-04-01T06:02:19;4.38;;;1.98;;
28170;SDS011;15458;53.346;-1.688;2023-04-01T06:04:45;2.72;;;1.73;;
28170;SDS011;15458;53.346;-1.688;2023-04-01T06:07:12;3.35;;;1.63;;
28170;SDS011;15458;53.346;-1.688;2023-04-01T06:09:43;3.90;;;1.55;;
28170;SDS011;15458;53.346;-1.688;2023-04-01T06:17:51;4.93;;;1.05;;
28170;SDS011;15458;53.346;-1.688;2023-04-01T06:20:41;5.38;;;2.78;;
28170;SDS011;15458;53.346;-1.688;2023-04-01T06:28:50;3.92;;;0.95;;
28170;SDS011;15458;53.346;-1.688;2023-04-01T06:53:43;6.45;;;2.00;;
28170;SDS011;15458;53.346;-1.688;2023-04-01T06:56:15;3.47;;;1.67;;
28170;SDS011;15458;53.346;-1.688;2023-04-01T07:01:18;3.70;;;1.60;;
28170;SDS011;15458;53.346;-1.688;2023-04-01T07:03:49;5.20;;;1.52;;
28170;SDS011;15458;53.346;-1.688;2023-04-01T07:09:04;2.88;;;1.40;;
28170;SDS011;15458;53.346;-1.688;2023-04-01T07:11:35;3.15;;;1.60;;
28170;SDS011;15458;53.346;-1.688;2023-04-01T07:14:24;4.03;;;1.60;;
28170;SDS011;15458;53.346;-1.688;2023-04-01T07:17:04;4.95;;;1.80;;
28170;SDS011;15458;53.346;-1.688;2023-04-01T07:19:42;6.40;;;1.33;;
28170;SDS011;15458;53.346;-1.688;2023-04-01T07:22:36;10.85;;;1.70;;
28170;SDS011;15458;53.346;-1.688;2023-04-01T07:28:06;4.32;;;1.40;;
28170;SDS011;15458;53.346;-1.688;2023-04-01T07:33:29;3.38;;;1.30;;
28170;SDS011;15458;53.346;-1.688;2023-04-01T07:36:22;1.30;;;1.20;;
28170;SDS011;15458;53.346;-1.688;2023-04-01T07:39:09;7.35;;;1.67;;
28170;SDS011;15458;53.346;-1.688;2023-04-01T07:41:51;4.00;;;1.40;;
28170;SDS011;15458;53.346;-1.688;2023-04-01T07:47:43;4.63;;;1.38;;
28170;SDS011;15458;53.346;-1.688;2023-04-01T07:50:21;4.25;;;1.50;;
28170;SDS011;15458;53.346;-1.688;2023-04-01T07:55:27;7.03;;;2.00;;
28170;SDS011;15458;53.346;-1.688;2023-04-01T07:58:34;3.28;;;1.38;;
28170;SDS011;15458;53.346;-1.688;2023-04-01T08:01:11;1.92;;;1.60;;
28170;SDS011;15458;53.346;-1.688;2023-04-01T08:06:44;4.88;;;1.27;;
28170;SDS011;15458;53.346;-1.688;2023-04-01T08:12:04;3.47;;;1.38;;
28170;SDS011;15458;53.346;-1.688;2023-04-01T08:15:04;4.03;;;1.80;;
28170;SDS011;15458;53.346;-1.688;2023-04-01T08:17:56;5.35;;;2.08;;
28170;SDS011;15458;53.346;-1.688;2023-04-01T08:25:51;3.33;;;1.58;;
28170;SDS011;15458;53.346;-1.688;2023-04-01T08:29:06;6.53;;;1.98;;
28170;SDS011;15458;53.346;-1.688;2023-04-01T08:32:00;7.80;;;3.05;;
28170;SDS011;15458;53.346;-1.688;2023-04-01T08:34:37;5.22;;;2.10;;
28170;SDS011;15458;53.346;-1.688;2023-04-01T08:37:09;4.13;;;2.00;;
28170;SDS011;15458;53.346;-1.688;2023-04-01T08:39:40;5.20;;;2.10;;
28170;SDS011;15458;53.346;-1.688;2023-04-01T08:45:21;2.45;;;1.40;;
28170;SDS011;15458;53.346;-1.688;2023-04-01T08:48:08;4.97;;;1.75;;
28170;SDS011;15458;53.346;-1.688;2023-04-01T09:01:59;3.47;;;1.70;;
28170;SDS011;15458;53.346;-1.688;2023-04-01T09:21:48;6.88;;;2.22;;
28170;SDS011;15458;53.346;-1.688;2023-04-01T09:27:19;2.50;;;1.52;;
28170;SDS011;15458;53.346;-1.688;2023-04-01T09:30:06;4.13;;;1.83;;
28170;SDS011;15458;53.346;-1.688;2023-04-01T09:41:27;3.17;;;1.35;;
28170;SDS011;15458;53.346;-1.688;2023-04-01T09:44:33;2.28;;;0.93;;
28170;SDS011;15458;53.346;-1.688;2023-04-01T09:52:47;1.58;;;0.95;;
28170;SDS011;15458;53.346;-1.688;2023-04-01T10:36:38;3.05;;;0.90;;
28170;SDS011;15458;53.346;-1.688;2023-04-01T10:50:24;4.22;;;0.75;;
28170;SDS011;15458;53.346;-1.688;2023-04-01T10:56:07;1.25;;;0.68;;
28170;SDS011;15458;53.346;-1.688;2023-04-01T11:07:22;3.58;;;1.35;;
28170;SDS011;15458;53.346;-1.688;2023-04-01T11:21:59;1.58;;;0.90;;
28170;SDS011;15458;53.346;-1.688;2023-04-01T11:39:14;2.20;;;1.25;;
28170;SDS011;15458;53.346;-1.688;2023-04-01T11:44:45;1.33;;;1.00;;
28170;SDS011;15458;53.346;-1.688;2023-04-01T11:47:20;1.38;;;0.80;;
28170;SDS011;15458;53.346;-1.688;2023-04-01T12:04:03;2.33;;;0.98;;
28170;SDS011;15458;53.346;-1.688;2023-04-01T12:09:03;2.78;;;1.40;;
28170;SDS011;15458;53.346;-1.688;2023-04-01T12:14:16;1.50;;;0.80;;
28170;SDS011;15458;53.346;-1.688;2023-04-01T12:19:19;1.23;;;0.88;;
28170;SDS011;15458;53.346;-1.688;2023-04-01T12:27:34;1.05;;;0.65;;
28170;SDS011;15458;53.346;-1.688;2023-04-01T12:30:14;1.38;;;0.90;;
28170;SDS011;15458;53.346;-1.688;2023-04-01T13:11:33;6.40;;;1.50;;
28170;SDS011;15458;53.346;-1.688;2023-04-01T13:30:48;2.63;;;1.10;;
28170;SDS011;15458;53.346;-1.688;2023-04-01T13:41:29;2.53;;;1.08;;
28170;SDS011;15458;53.346;-1.688;2023-04-01T13:44:11;2.40;;;1.10;;
28170;SDS011;15458;53.346;-1.688;2023-04-01T13:46:51;3.92;;;1.05;;
28170;SDS011;15458;53.346;-1.688;2023-04-01T13:52:16;2.88;;;1.10;;
28170;SDS011;15458;53.346;-1.688;2023-04-01T14:00:27;2.28;;;1.00;;
28170;SDS011;15458;53.346;-1.688;2023-04-01T14:05:47;3.65;;;1.20;;
28170;SDS011;15458;53.346;-1.688;2023-04-01T14:08:36;0.65;;;0.60;;
28170;SDS011;15458;53.346;-1.688;2023-04-01T14:23:09;1.33;;;0.60;;
28170;SDS011;15458;53.346;-1.688;2023-04-01T14:33:46;4.93;;;0.85;;
28170;SDS011;15458;53.346;-1.688;2023-04-01T14:39:21;1.20;;;0.70;;
28170;SDS011;15458;53.346;-1.688;2023-04-01T14:50:13;1.83;;;1.40;;
28170;SDS011;15458;53.346;-1.688;2023-04-01T15:09:02;1.90;;;0.73;;
28170;SDS011;15458;53.346;-1.688;2023-04-01T15:11:36;3.92;;;1.02;;
28170;SDS011;15458;53.346;-1.688;2023-04-01T15:24:47;3.60;;;1.00;;
28170;SDS011;15458;53.346;-1.688;2023-04-01T15:39:13;4.07;;;1.30;;
28170;SDS011;15458;53.346;-1.688;2023-04-01T15:41:24;4.07;;;1.57;;
28170;SDS011;15458;53.346;-1.688;2023-04-01T15:44:27;2.72;;;1.73;;
28170;SDS011;15458;53.346;-1.688;2023-04-01T15:47:31;8.57;;;2.28;;
28170;SDS011;15458;53.346;-1.688;2023-04-01T16:06:51;5.60;;;2.22;;
28170;SDS011;15458;53.346;-1.688;2023-04-01T16:15:34;5.30;;;2.35;;
28170;SDS011;15458;53.346;-1.688;2023-04-01T16:23:49;7.38;;;2.90;;
28170;SDS011;15458;53.346;-1.688;2023-04-01T16:26:35;8.48;;;2.72;;
28170;SDS011;15458;53.346;-1.688;2023-04-01T16:31:48;9.05;;;2.70;;
28170;SDS011;15458;53.346;-1.688;2023-04-01T16:34:37;7.15;;;2.42;;
28170;SDS011;15458;53.346;-1.688;2023-04-01T16:40:09;10.60;;;2.20;;
28170;SDS011;15458;53.346;-1.688;2023-04-01T16:42:52;7.57;;;2.30;;
28170;SDS011;15458;53.346;-1.688;2023-04-01T16:45:26;6.35;;;2.00;;
28170;SDS011;15458;53.346;-1.688;2023-04-01T16:48:15;10.35;;;2.25;;
28170;SDS011;15458;53.346;-1.688;2023-04-01T16:57:18;5.78;;;2.15;;
28170;SDS011;15458;53.346;-1.688;2023-04-01T16:59:27;6.00;;;2.08;;
28170;SDS011;15458;53.346;-1.688;2023-04-01T17:04:45;10.75;;;2.03;;
28170;SDS011;15458;53.346;-1.688;2023-04-01T17:07:35;9.93;;;3.00;;
28170;SDS011;15458;53.346;-1.688;2023-04-01T17:10:37;12.05;;;2.28;;
28170;SDS011;15458;53.346;-1.688;2023-04-01T17:15:43;9.95;;;2.90;;
28170;SDS011;15458;53.346;-1.688;2023-04-01T17:24:43;7.28;;;2.88;;
28170;SDS011;15458;53.346;-1.688;2023-04-01T17:27:18;9.30;;;2.20;;
28170;SDS011;15458;53.346;-1.688;2023-04-01T17:35:27;5.32;;;2.17;;
28170;SDS011;15458;53.346;-1.688;2023-04-01T17:40:34;4.72;;;2.13;;
28170;SDS011;15458;53.346;-1.688;2023-04-01T17:44:05;4.45;;;2.03;;
28170;SDS011;15458;53.346;-1.688;2023-04-01T17:46:41;9.25;;;2.50;;
28170;SDS011;15458;53.346;-1.688;2023-04-01T17:54:46;6.43;;;2.75;;
28170;SDS011;15458;53.346;-1.688;2023-04-01T17:57:52;10.50;;;2.53;;
28170;SDS011;15458;53.346;-1.688;2023-04-01T18:00:25;2.42;;;1.65;;
28170;SDS011;15458;53.346;-1.688;2023-04-01T18:06:19;9.27;;;3.22;;
28170;SDS011;15458;53.346;-1.688;2023-04-01T18:22:54;6.53;;;2.40;;
28170;SDS011;15458;53.346;-1.688;2023-04-01T18:25:38;3.05;;;2.08;;
28170;SDS011;15458;53.346;-1.688;2023-04-01T18:31:12;4.47;;;2.20;;
28170;SDS011;15458;53.346;-1.688;2023-04-01T18:36:35;5.30;;;2.05;;
28170;SDS011;15458;53.346;-1.688;2023-04-01T18:39:17;2.45;;;1.95;;
28170;SDS011;15458;53.346;-1.688;2023-04-01T18:50:37;6.65;;;2.45;;
28170;SDS011;15458;53.346;-1.688;2023-04-01T18:56:07;3.45;;;2.00;;
28170;SDS011;15458;53.346;-1.688;2023-04-01T18:58:45;2.70;;;1.80;;
28170;SDS011;15458;53.346;-1.688;2023-04-01T19:01:19;4.60;;;1.70;;
28170;SDS011;15458;53.346;-1.688;2023-04-01T19:06:50;3.28;;;2.10;;
28170;SDS011;15458;53.346;-1.688;2023-04-01T19:09:21;3.55;;;2.20;;
28170;SDS011;15458;53.346;-1.688;2023-04-01T19:23:01;4.50;;;2.20;;
28170;SDS011;15458;53.346;-1.688;2023-04-01T19:25:37;4.22;;;2.38;;
28170;SDS011;15458;53.346;-1.688;2023-04-01T19:42:11;4.07;;;1.85;;
28170;SDS011;15458;53.346;-1.688;2023-04-01T19:50:49;2.88;;;1.80;;
28170;SDS011;15458;53.346;-1.688;2023-04-01T19:53:44;3.63;;;1.85;;
28170;SDS011;15458;53.346;-1.688;2023-04-01T19:56:30;4.97;;;1.80;;
28170;SDS011;15458;53.346;-1.688;2023-04-01T19:59:24;2.97;;;1.67;;
28170;SDS011;15458;53.346;-1.688;2023-04-01T20:04:48;3.55;;;1.98;;
28170;SDS011;15458;53.346;-1.688;2023-04-01T20:07:41;5.65;;;2.58;;
28170;SDS011;15458;53.346;-1.688;2023-04-01T20:10:29;8.50;;;3.10;;
28170;SDS011;15458;53.346;-1.688;2023-04-01T20:13:11;9.40;;;3.75;;
28170;SDS011;15458;53.346;-1.688;2023-04-01T20:18:12;7.30;;;3.05;;
28170;SDS011;15458;53.346;-1.688;2023-04-01T20:21:00;4.88;;;2.63;;
28170;SDS011;15458;53.346;-1.688;2023-04-01T20:26:04;8.35;;;3.42;;
28170;SDS011;15458;53.346;-1.688;2023-04-01T20:31:15;9.10;;;3.65;;
28170;SDS011;15458;53.346;-1.688;2023-04-01T20:51:31;7.22;;;3.55;;
28170;SDS011;15458;53.346;-1.688;2023-04-01T20:56:57;13.10;;;5.55;;
28170;SDS011;15458;53.346;-1.688;2023-04-01T21:07:54;11.82;;;4.25;;
28170;SDS011;15458;53.346;-1.688;2023-04-01T21:10:41;7.65;;;3.28;;
28170;SDS011;15458;53.346;-1.688;2023-04-01T21:13:16;14.35;;;4.18;;
28170;SDS011;15458;53.346;-1.688;2023-04-01T21:35:08;12.45;;;5.30;;
28170;SDS011;15458;53.346;-1.688;2023-04-01T21:40:33;9.27;;;4.53;;
28170;SDS011;15458;53.346;-1.688;2023-04-01T21:43:24;13.38;;;5.95;;
28170;SDS011;15458;53.346;-1.688;2023-04-01T21:54:17;9.38;;;3.95;;
28170;SDS011;15458;53.346;-1.688;2023-04-01T22:05:28;9.07;;;4.10;;
28170;SDS011;15458;53.346;-1.688;2023-04-01T22:13:07;8.38;;;3.35;;
28170;SDS011;15458;53.346;-1.688;2023-04-01T22:21:35;6.10;;;3.33;;
28170;SDS011;15458;53.346;-1.688;2023-04-01T22:24:26;10.00;;;3.80;;
28170;SDS011;15458;53.346;-1.688;2023-04-01T22:32:47;7.78;;;3.72;;
28170;SDS011;15458;53.346;-1.688;2023-04-01T22:35:40;11.82;;;4.68;;
28170;SDS011;15458;53.346;-1.688;2023-04-01T22:41:06;6.43;;;3.22;;
28170;SDS011;15458;53.346;-1.688;2023-04-01T22:43:44;9.63;;;3.80;;
28170;SDS011;15458;53.346;-1.688;2023-04-01T22:46:23;13.20;;;4.25;;
28170;SDS011;15458;53.346;-1.688;2023-04-01T22:49:09;9.07;;;5.25;;
28170;SDS011;15458;53.346;-1.688;2023-04-01T22:54:38;7.75;;;3.30;;
28170;SDS011;15458;53.346;-1.688;2023-04-01T23:00:06;10.95;;;3.88;;
28170;SDS011;15458;53.346;-1.688;2023-04-01T23:02:41;5.28;;;3.08;;
28170;SDS011;15458;53.346;-1.688;2023-04-01T23:05:13;8.95;;;3.88;;
28170;SDS011;15458;53.346;-1.688;2023-04-01T23:10:53;8.32;;;3.83;;
28170;SDS011;15458;53.346;-1.688;2023-04-01T23:13:24;5.57;;;3.75;;
28170;SDS011;15458;53.346;-1.688;2023-04-01T23:15:54;11.68;;;3.38;;
28170;SDS011;15458;53.346;-1.688;2023-04-01T23:18:28;7.22;;;3.40;;
28170;SDS011;15458;53.346;-1.688;2023-04-01T23:27:08;4.90;;;2.95;;
28170;SDS011;15458;53.346;-1.688;2023-04-01T23:29:45;6.63;;;3.35;;
28170;SDS011;15458;53.346;-1.688;2023-04-01T23:32:21;7.07;;;2.40;;
28170;SDS011;15458;53.346;-1.688;2023-04-01T23:34:51;9.20;;;3.50;;
28170;SDS011;15458;53.346;-1.688;2023-04-01T23:37:22;6.38;;;2.70;;
28170;SDS011;15458;53.346;-1.688;2023-04-01T23:44:51;6.30;;;3.22;;
28170;SDS011;15458;53.346;-1.688;2023-04-01T23:49:55;5.60;;;3.10;;
28170;SDS011;15458;53.346;-1.688;2023-04-01T23:52:27;10.32;;;3.50;;
28170;SDS011;15458;53.346;-1.688;2023-04-01T23:54:57;5.95;;;3.20;;
28170;SDS011;15458;53.346;-1.688;2023-04-01T23:57:29;6.90;;;2.95;;
